sensor_id;sensor_type;location;lat;lon;timestamp;P1;durP1;ratioP1;P2;durP2;ratioP2
72125;SDS011;59999;51.676;22.650;2023-03-26T00:01:55;23.67;;;11.07;;
72125;SDS011;59999;51.676;22.650;2023-03-26T00:04:22;25.53;;;11.73;;
72125;SDS011;59999;51.676;22.650;2023-03-26T00:06:49;24.95;;;10.80;;
72125;SDS011;59999;51.676;22.650;2023-03-26T00:09:16;26.20;;;11.00;;
72125;SDS011;59999;51.676;22.650;2023-03-26T00:11:43;25.05;;;10.70;;
72125;SDS011;59999;51.676;22.650;2023-03-26T00:14:11;22.10;;;11.20;;
72125;SDS011;59999;51.676;22.650;2023-03-26T00:16:38;21.47;;;9.53;;
72125;SDS011;59999;51.676;22.650;2023-03-26T00:19:08;23.17;;;10.27;;
72125;SDS011;59999;51.676;22.650;2023-03-26T00:21:35;24.75;;;10.40;;
72125;SDS011;59999;51.676;22.650;2023-03-26T00:24:03;24.80;;;10.38;;
72125;SDS011;59999;51.676;22.650;2023-03-26T00:26:32;23.80;;;10.82;;
72125;SDS011;59999;51.676;22.650;2023-03-26T00:28:59;24.83;;;10.47;;
72125;SDS011;59999;51.676;22.650;2023-03-26T00:31:27;24.60;;;10.30;;
72125;SDS011;59999;51.676;22.650;2023-03-26T00:33:53;22.63;;;9.43;;
72125;SDS011;59999;51.676;22.650;2023-03-26T00:36:22;24.77;;;10.38;;
72125;SDS011;59999;51.676;22.650;2023-03-26T00:38:52;24.63;;;10.05;;
72125;SDS011;59999;51.676;22.650;2023-03-26T00:41:19;21.73;;;10.50;;
72125;SDS011;59999;51.676;22.650;2023-03-26T00:43:56;23.27;;;9.45;;
72125;SDS011;59999;51.676;22.650;2023-03-26T00:46:23;20.33;;;9.27;;
72125;SDS011;59999;51.676;22.650;2023-03-26T00:48:50;22.05;;;9.77;;
72125;SDS011;59999;51.676;22.650;2023-03-26T00:51:17;20.83;;;9.10;;
72125;SDS011;59999;51.676;22.650;2023-03-26T00:53:44;20.60;;;9.48;;
72125;SDS011;59999;51.676;22.650;2023-03-26T00:56:12;20.73;;;9.57;;
72125;SDS011;59999;51.676;22.650;2023-03-26T00:58:38;20.55;;;8.23;;
72125;SDS011;59999;51.676;22.650;2023-03-26T01:01:06;17.92;;;8.13;;
72125;SDS011;59999;51.676;22.650;2023-03-26T01:03:39;22.08;;;8.68;;
72125;SDS011;59999;51.676;22.650;2023-03-26T01:06:07;18.77;;;7.25;;
72125;SDS011;59999;51.676;22.650;2023-03-26T01:08:38;22.40;;;8.27;;
72125;SDS011;59999;51.676;22.650;2023-03-26T01:11:22;17.35;;;8.63;;
72125;SDS011;59999;51.676;22.650;2023-03-26T01:13:55;16.45;;;7.05;;
72125;SDS011;59999;51.676;22.650;2023-03-26T01:16:34;19.90;;;8.48;;
72125;SDS011;59999;51.676;22.650;2023-03-26T01:19:07;16.15;;;7.35;;
72125;SDS011;59999;51.676;22.650;2023-03-26T01:21:37;16.40;;;6.82;;
72125;SDS011;59999;51.676;22.650;2023-03-26T01:26:53;18.10;;;7.22;;
72125;SDS011;59999;51.676;22.650;2023-03-26T01:32:07;17.05;;;7.88;;
72125;SDS011;59999;51.676;22.650;2023-03-26T01:37:45;16.45;;;6.82;;
72125;SDS011;59999;51.676;22.650;2023-03-26T01:40:25;17.30;;;6.07;;
72125;SDS011;59999;51.676;22.650;2023-03-26T01:43:05;14.32;;;6.13;;
72125;SDS011;59999;51.676;22.650;2023-03-26T01:45:43;17.02;;;6.50;;
72125;SDS011;59999;51.676;22.650;2023-03-26T01:48:12;14.93;;;6.15;;
72125;SDS011;59999;51.676;22.650;2023-03-26T01:50:38;15.63;;;6.55;;
72125;SDS011;59999;51.676;22.650;2023-03-26T01:53:04;15.75;;;6.60;;
72125;SDS011;59999;51.676;22.650;2023-03-26T02:00:48;13.55;;;6.05;;
72125;SDS011;59999;51.676;22.650;2023-03-26T02:03:24;15.55;;;6.13;;
72125;SDS011;59999;51.676;22.650;2023-03-26T02:06:00;15.15;;;5.93;;
72125;SDS011;59999;51.676;22.650;2023-03-26T02:08:41;16.75;;;5.72;;
72125;SDS011;59999;51.676;22.650;2023-03-26T02:11:15;17.00;;;6.35;;
72125;SDS011;59999;51.676;22.650;2023-03-26T02:13:41;17.58;;;6.00;;
72125;SDS011;59999;51.676;22.650;2023-03-26T02:16:11;15.48;;;6.78;;
72125;SDS011;59999;51.676;22.650;2023-03-26T02:18:41;15.70;;;5.63;;
72125;SDS011;59999;51.676;22.650;2023-03-26T02:21:09;14.15;;;6.10;;
72125;SDS011;59999;51.676;22.650;2023-03-26T02:23:44;14.32;;;6.25;;
72125;SDS011;59999;51.676;22.650;2023-03-26T02:26:12;18.00;;;6.30;;
72125;SDS011;59999;51.676;22.650;2023-03-26T02:28:39;18.95;;;6.90;;
72125;SDS011;59999;51.676;22.650;2023-03-26T02:31:06;12.35;;;5.47;;
72125;SDS011;59999;51.676;22.650;2023-03-26T02:33:35;17.83;;;6.53;;
72125;SDS011;59999;51.676;22.650;2023-03-26T02:36:02;15.25;;;6.53;;
72125;SDS011;59999;51.676;22.650;2023-03-26T02:38:31;14.27;;;5.75;;
72125;SDS011;59999;51.676;22.650;2023-03-26T02:41:00;13.75;;;5.60;;
72125;SDS011;59999;51.676;22.650;2023-03-26T02:43:27;14.45;;;5.90;;
72125;SDS011;59999;51.676;22.650;2023-03-26T02:45:53;14.90;;;5.82;;
72125;SDS011;59999;51.676;22.650;2023-03-26T02:48:19;13.40;;;6.43;;
72125;SDS011;59999;51.676;22.650;2023-03-26T02:50:46;13.27;;;5.93;;
72125;SDS011;59999;51.676;22.650;2023-03-26T02:53:17;12.23;;;5.18;;
72125;SDS011;59999;51.676;22.650;2023-03-26T02:55:43;14.23;;;5.47;;
72125;SDS011;59999;51.676;22.650;2023-03-26T02:58:09;17.35;;;5.88;;
72125;SDS011;59999;51.676;22.650;2023-03-26T03:00:36;16.10;;;6.28;;
72125;SDS011;59999;51.676;22.650;2023-03-26T03:03:02;13.57;;;5.50;;
72125;SDS011;59999;51.676;22.650;2023-03-26T03:05:32;15.98;;;5.95;;
72125;SDS011;59999;51.676;22.650;2023-03-26T03:07:58;14.15;;;5.32;;
72125;SDS011;59999;51.676;22.650;2023-03-26T03:10:25;12.52;;;5.28;;
72125;SDS011;59999;51.676;22.650;2023-03-26T03:12:52;11.68;;;4.50;;
72125;SDS011;59999;51.676;22.650;2023-03-26T03:15:25;13.85;;;5.38;;
72125;SDS011;59999;51.676;22.650;2023-03-26T03:17:52;11.82;;;5.13;;
72125;SDS011;59999;51.676;22.650;2023-03-26T03:20:18;14.60;;;5.15;;
72125;SDS011;59999;51.676;22.650;2023-03-26T03:22:46;14.57;;;5.03;;
72125;SDS011;59999;51.676;22.650;2023-03-26T03:25:12;13.07;;;4.83;;
72125;SDS011;59999;51.676;22.650;2023-03-26T03:27:40;11.70;;;4.60;;
72125;SDS011;59999;51.676;22.650;2023-03-26T03:30:07;11.98;;;4.93;;
72125;SDS011;59999;51.676;22.650;2023-03-26T03:32:35;14.82;;;5.45;;
72125;SDS011;59999;51.676;22.650;2023-03-26T03:35:01;11.25;;;4.57;;
72125;SDS011;59999;51.676;22.650;2023-03-26T03:37:27;14.02;;;4.85;;
72125;SDS011;59999;51.676;22.650;2023-03-26T03:39:53;12.00;;;4.63;;
72125;SDS011;59999;51.676;22.650;2023-03-26T03:42:19;10.90;;;4.38;;
72125;SDS011;59999;51.676;22.650;2023-03-26T03:44:45;14.38;;;5.47;;
72125;SDS011;59999;51.676;22.650;2023-03-26T03:47:11;13.48;;;5.05;;
72125;SDS011;59999;51.676;22.650;2023-03-26T03:49:38;10.70;;;4.22;;
72125;SDS011;59999;51.676;22.650;2023-03-26T03:52:05;13.85;;;4.80;;
72125;SDS011;59999;51.676;22.650;2023-03-26T03:54:31;12.38;;;5.13;;
72125;SDS011;59999;51.676;22.650;2023-03-26T03:56:57;9.98;;;3.60;;
72125;SDS011;59999;51.676;22.650;2023-03-26T03:59:23;13.68;;;5.03;;
72125;SDS011;59999;51.676;22.650;2023-03-26T04:01:50;13.30;;;5.13;;
72125;SDS011;59999;51.676;22.650;2023-03-26T04:04:16;13.73;;;5.43;;
72125;SDS011;59999;51.676;22.650;2023-03-26T04:06:42;12.73;;;4.97;;
72125;SDS011;59999;51.676;22.650;2023-03-26T04:09:08;13.88;;;4.63;;
72125;SDS011;59999;51.676;22.650;2023-03-26T04:11:35;12.97;;;5.03;;
72125;SDS011;59999;51.676;22.650;2023-03-26T04:14:01;13.20;;;5.35;;
72125;SDS011;59999;51.676;22.650;2023-03-26T04:16:27;13.50;;;5.50;;
72125;SDS011;59999;51.676;22.650;2023-03-26T04:18:53;14.27;;;5.43;;
72125;SDS011;59999;51.676;22.650;2023-03-26T04:21:19;14.73;;;5.67;;
72125;SDS011;59999;51.676;22.650;2023-03-26T04:23:45;14.35;;;6.20;;
72125;SDS011;59999;51.676;22.650;2023-03-26T04:26:13;14.93;;;5.72;;
72125;SDS011;59999;51.676;22.650;2023-03-26T04:28:48;15.02;;;6.22;;
72125;SDS011;59999;51.676;22.650;2023-03-26T04:31:19;14.73;;;5.63;;
72125;SDS011;59999;51.676;22.650;2023-03-26T04:33:49;13.43;;;5.45;;
72125;SDS011;59999;51.676;22.650;2023-03-26T04:36:24;15.82;;;6.40;;
72125;SDS011;59999;51.676;22.650;2023-03-26T04:38:52;18.00;;;6.72;;
72125;SDS011;59999;51.676;22.650;2023-03-26T04:41:20;16.52;;;6.93;;
72125;SDS011;59999;51.676;22.650;2023-03-26T04:43:46;17.48;;;6.28;;
72125;SDS011;59999;51.676;22.650;2023-03-26T04:46:15;16.73;;;6.55;;
72125;SDS011;59999;51.676;22.650;2023-03-26T04:48:48;18.67;;;6.32;;
72125;SDS011;59999;51.676;22.650;2023-03-26T04:51:16;16.27;;;6.85;;
72125;SDS011;59999;51.676;22.650;2023-03-26T04:54:16;16.20;;;6.78;;
72125;SDS011;59999;51.676;22.650;2023-03-26T04:59:24;15.20;;;5.90;;
72125;SDS011;59999;51.676;22.650;2023-03-26T05:01:55;15.30;;;6.00;;
72125;SDS011;59999;51.676;22.650;2023-03-26T05:04:22;14.52;;;5.88;;
72125;SDS011;59999;51.676;22.650;2023-03-26T05:06:48;13.52;;;4.82;;
72125;SDS011;59999;51.676;22.650;2023-03-26T05:09:14;15.23;;;6.23;;
72125;SDS011;59999;51.676;22.650;2023-03-26T05:11:41;16.55;;;6.32;;
72125;SDS011;59999;51.676;22.650;2023-03-26T05:14:07;13.10;;;5.18;;
72125;SDS011;59999;51.676;22.650;2023-03-26T05:16:33;13.63;;;5.47;;
72125;SDS011;59999;51.676;22.650;2023-03-26T05:19:00;13.15;;;4.55;;
72125;SDS011;59999;51.676;22.650;2023-03-26T05:21:26;11.52;;;4.22;;
72125;SDS011;59999;51.676;22.650;2023-03-26T05:23:52;13.95;;;5.30;;
72125;SDS011;59999;51.676;22.650;2023-03-26T05:26:18;12.32;;;4.88;;
72125;SDS011;59999;51.676;22.650;2023-03-26T05:28:44;12.45;;;4.93;;
72125;SDS011;59999;51.676;22.650;2023-03-26T05:31:10;10.88;;;4.28;;
72125;SDS011;59999;51.676;22.650;2023-03-26T05:33:37;12.60;;;4.05;;
72125;SDS011;59999;51.676;22.650;2023-03-26T05:36:04;11.70;;;4.50;;
72125;SDS011;59999;51.676;22.650;2023-03-26T05:38:50;11.65;;;4.80;;
72125;SDS011;59999;51.676;22.650;2023-03-26T05:41:17;13.88;;;4.43;;
72125;SDS011;59999;51.676;22.650;2023-03-26T05:43:43;12.52;;;3.95;;
72125;SDS011;59999;51.676;22.650;2023-03-26T05:46:10;12.70;;;4.65;;
72125;SDS011;59999;51.676;22.650;2023-03-26T05:48:37;9.93;;;3.13;;
72125;SDS011;59999;51.676;22.650;2023-03-26T05:51:04;10.35;;;3.85;;
72125;SDS011;59999;51.676;22.650;2023-03-26T05:53:31;10.25;;;4.10;;
72125;SDS011;59999;51.676;22.650;2023-03-26T05:55:57;11.75;;;3.58;;
72125;SDS011;59999;51.676;22.650;2023-03-26T05:58:27;9.90;;;3.67;;
72125;SDS011;59999;51.676;22.650;2023-03-26T06:01:04;11.48;;;4.45;;
72125;SDS011;59999;51.676;22.650;2023-03-26T06:03:33;10.85;;;4.05;;
72125;SDS011;59999;51.676;22.650;2023-03-26T06:06:01;13.85;;;4.05;;
72125;SDS011;59999;51.676;22.650;2023-03-26T06:08:28;11.85;;;4.22;;
72125;SDS011;59999;51.676;22.650;2023-03-26T06:11:00;10.57;;;3.80;;
72125;SDS011;59999;51.676;22.650;2023-03-26T06:13:27;8.68;;;3.20;;
72125;SDS011;59999;51.676;22.650;2023-03-26T06:15:53;10.60;;;3.47;;
72125;SDS011;59999;51.676;22.650;2023-03-26T06:18:19;11.25;;;3.65;;
72125;SDS011;59999;51.676;22.650;2023-03-26T06:20:45;9.98;;;3.72;;
72125;SDS011;59999;51.676;22.650;2023-03-26T06:23:12;8.43;;;2.37;;
72125;SDS011;59999;51.676;22.650;2023-03-26T06:25:38;11.10;;;3.70;;
72125;SDS011;59999;51.676;22.650;2023-03-26T06:28:05;11.43;;;3.92;;
72125;SDS011;59999;51.676;22.650;2023-03-26T06:30:31;11.25;;;3.13;;
72125;SDS011;59999;51.676;22.650;2023-03-26T06:32:57;9.47;;;3.00;;
72125;SDS011;59999;51.676;22.650;2023-03-26T06:35:23;12.82;;;4.13;;
72125;SDS011;59999;51.676;22.650;2023-03-26T06:37:49;8.60;;;3.22;;
72125;SDS011;59999;51.676;22.650;2023-03-26T06:40:15;10.70;;;4.00;;
72125;SDS011;59999;51.676;22.650;2023-03-26T06:42:41;7.82;;;2.88;;
72125;SDS011;59999;51.676;22.650;2023-03-26T06:45:07;10.38;;;3.70;;
72125;SDS011;59999;51.676;22.650;2023-03-26T06:47:33;12.73;;;4.03;;
72125;SDS011;59999;51.676;22.650;2023-03-26T06:49:59;8.98;;;3.55;;
72125;SDS011;59999;51.676;22.650;2023-03-26T06:52:26;10.73;;;4.07;;
72125;SDS011;59999;51.676;22.650;2023-03-26T06:54:53;7.28;;;3.10;;
72125;SDS011;59999;51.676;22.650;2023-03-26T06:57:19;12.60;;;4.67;;
72125;SDS011;59999;51.676;22.650;2023-03-26T06:59:45;13.27;;;6.18;;
72125;SDS011;59999;51.676;22.650;2023-03-26T07:02:11;14.40;;;5.97;;
72125;SDS011;59999;51.676;22.650;2023-03-26T07:04:37;13.05;;;4.82;;
72125;SDS011;59999;51.676;22.650;2023-03-26T07:07:03;12.23;;;4.03;;
72125;SDS011;59999;51.676;22.650;2023-03-26T07:09:30;13.00;;;4.25;;
72125;SDS011;59999;51.676;22.650;2023-03-26T07:11:56;15.57;;;4.68;;
72125;SDS011;59999;51.676;22.650;2023-03-26T07:14:23;12.45;;;4.15;;
72125;SDS011;59999;51.676;22.650;2023-03-26T07:16:50;13.52;;;4.85;;
72125;SDS011;59999;51.676;22.650;2023-03-26T07:19:16;11.10;;;4.15;;
72125;SDS011;59999;51.676;22.650;2023-03-26T07:21:42;15.65;;;5.00;;
72125;SDS011;59999;51.676;22.650;2023-03-26T07:24:11;10.18;;;3.92;;
72125;SDS011;59999;51.676;22.650;2023-03-26T07:26:45;13.07;;;3.95;;
72125;SDS011;59999;51.676;22.650;2023-03-26T07:31:51;11.90;;;3.30;;
72125;SDS011;59999;51.676;22.650;2023-03-26T07:37:15;8.10;;;3.00;;
72125;SDS011;59999;51.676;22.650;2023-03-26T07:40:04;9.48;;;3.28;;
72125;SDS011;59999;51.676;22.650;2023-03-26T07:45:29;7.57;;;2.70;;
72125;SDS011;59999;51.676;22.650;2023-03-26T07:48:08;8.60;;;3.05;;
72125;SDS011;59999;51.676;22.650;2023-03-26T07:50:41;10.10;;;4.07;;
72125;SDS011;59999;51.676;22.650;2023-03-26T07:53:08;7.55;;;2.95;;
72125;SDS011;59999;51.676;22.650;2023-03-26T07:55:35;9.20;;;3.20;;
72125;SDS011;59999;51.676;22.650;2023-03-26T08:00:54;10.25;;;3.83;;
72125;SDS011;59999;51.676;22.650;2023-03-26T08:03:30;9.83;;;3.40;;
72125;SDS011;59999;51.676;22.650;2023-03-26T08:06:36;12.57;;;3.47;;
72125;SDS011;59999;51.676;22.650;2023-03-26T08:17:13;8.00;;;3.00;;
72125;SDS011;59999;51.676;22.650;2023-03-26T08:30:08;49.67;;;16.23;;
72125;SDS011;59999;51.676;22.650;2023-03-26T08:32:42;11.60;;;5.07;;
72125;SDS011;59999;51.676;22.650;2023-03-26T08:35:17;10.63;;;5.05;;
72125;SDS011;59999;51.676;22.650;2023-03-26T08:37:43;10.77;;;4.57;;
72125;SDS011;59999;51.676;22.650;2023-03-26T08:40:09;10.77;;;5.30;;
72125;SDS011;59999;51.676;22.650;2023-03-26T08:48:39;9.55;;;3.85;;
72125;SDS011;59999;51.676;22.650;2023-03-26T09:03:00;6.95;;;2.70;;
72125;SDS011;59999;51.676;22.650;2023-03-26T09:19:47;7.30;;;2.50;;
72125;SDS011;59999;51.676;22.650;2023-03-26T09:46:52;7.95;;;2.88;;
72125;SDS011;59999;51.676;22.650;2023-03-26T09:49:52;7.73;;;2.63;;
72125;SDS011;59999;51.676;22.650;2023-03-26T10:01:19;9.40;;;4.18;;
72125;SDS011;59999;51.676;22.650;2023-03-26T10:04:35;6.63;;;2.67;;
72125;SDS011;59999;51.676;22.650;2023-03-26T10:12:41;16.77;;;8.25;;
72125;SDS011;59999;51.676;22.650;2023-03-26T10:18:20;10.27;;;4.87;;
72125;SDS011;59999;51.676;22.650;2023-03-26T10:21:03;9.00;;;4.82;;
72125;SDS011;59999;51.676;22.650;2023-03-26T10:29:31;23.17;;;12.20;;
72125;SDS011;59999;51.676;22.650;2023-03-26T10:32:21;12.17;;;7.10;;
72125;SDS011;59999;51.676;22.650;2023-03-26T10:42:51;13.52;;;7.13;;
72125;SDS011;59999;51.676;22.650;2023-03-26T10:57:33;8.20;;;3.88;;
72125;SDS011;59999;51.676;22.650;2023-03-26T11:00:00;7.53;;;3.40;;
72125;SDS011;59999;51.676;22.650;2023-03-26T11:02:40;6.80;;;2.88;;
72125;SDS011;59999;51.676;22.650;2023-03-26T11:05:26;6.60;;;2.88;;
72125;SDS011;59999;51.676;22.650;2023-03-26T11:10:47;7.13;;;2.85;;
72125;SDS011;59999;51.676;22.650;2023-03-26T11:28:00;4.77;;;1.67;;
72125;SDS011;59999;51.676;22.650;2023-03-26T11:30:35;7.90;;;3.15;;
72125;SDS011;59999;51.676;22.650;2023-03-26T11:33:17;26.80;;;10.60;;
72125;SDS011;59999;51.676;22.650;2023-03-26T11:35:48;8.15;;;3.30;;
72125;SDS011;59999;51.676;22.650;2023-03-26T11:38:25;8.13;;;2.75;;
72125;SDS011;59999;51.676;22.650;2023-03-26T11:40:58;10.82;;;4.65;;
72125;SDS011;59999;51.676;22.650;2023-03-26T11:43:28;8.65;;;3.67;;
72125;SDS011;59999;51.676;22.650;2023-03-26T11:46:00;11.80;;;5.10;;
72125;SDS011;59999;51.676;22.650;2023-03-26T11:48:50;17.83;;;11.40;;
72125;SDS011;59999;51.676;22.650;2023-03-26T11:51:18;11.23;;;5.13;;
72125;SDS011;59999;51.676;22.650;2023-03-26T11:53:49;7.87;;;3.30;;
72125;SDS011;59999;51.676;22.650;2023-03-26T11:59:00;16.77;;;7.63;;
72125;SDS011;59999;51.676;22.650;2023-03-26T12:04:35;9.38;;;4.85;;
72125;SDS011;59999;51.676;22.650;2023-03-26T12:09:52;6.65;;;2.63;;
72125;SDS011;59999;51.676;22.650;2023-03-26T12:12:23;7.20;;;2.60;;
72125;SDS011;59999;51.676;22.650;2023-03-26T12:15:02;6.93;;;3.00;;
72125;SDS011;59999;51.676;22.650;2023-03-26T12:17:37;6.07;;;2.40;;
72125;SDS011;59999;51.676;22.650;2023-03-26T12:22:54;5.45;;;2.35;;
72125;SDS011;59999;51.676;22.650;2023-03-26T12:25:28;5.68;;;2.20;;
72125;SDS011;59999;51.676;22.650;2023-03-26T12:33:01;6.63;;;3.20;;
72125;SDS011;59999;51.676;22.650;2023-03-26T12:35:32;5.65;;;2.30;;
72125;SDS011;59999;51.676;22.650;2023-03-26T12:49:05;4.68;;;1.20;;
72125;SDS011;59999;51.676;22.650;2023-03-26T12:51:36;2.35;;;0.63;;
72125;SDS011;59999;51.676;22.650;2023-03-26T13:07:57;7.28;;;2.97;;
72125;SDS011;59999;51.676;22.650;2023-03-26T13:15:56;6.60;;;2.65;;
72125;SDS011;59999;51.676;22.650;2023-03-26T13:23:35;7.38;;;2.97;;
72125;SDS011;59999;51.676;22.650;2023-03-26T13:29:19;5.55;;;2.10;;
72125;SDS011;59999;51.676;22.650;2023-03-26T13:35:30;4.22;;;0.73;;
72125;SDS011;59999;51.676;22.650;2023-03-26T13:37:58;3.15;;;0.65;;
72125;SDS011;59999;51.676;22.650;2023-03-26T13:46:12;2.60;;;0.50;;
72125;SDS011;59999;51.676;22.650;2023-03-26T13:49:05;3.45;;;1.13;;
72125;SDS011;59999;51.676;22.650;2023-03-26T13:56:46;4.63;;;1.63;;
72125;SDS011;59999;51.676;22.650;2023-03-26T13:59:29;6.82;;;2.22;;
72125;SDS011;59999;51.676;22.650;2023-03-26T14:02:12;5.32;;;1.52;;
72125;SDS011;59999;51.676;22.650;2023-03-26T14:05:20;4.47;;;1.70;;
72125;SDS011;59999;51.676;22.650;2023-03-26T14:11:10;6.53;;;2.50;;
72125;SDS011;59999;51.676;22.650;2023-03-26T14:14:02;4.88;;;1.63;;
72125;SDS011;59999;51.676;22.650;2023-03-26T14:16:40;6.03;;;1.70;;
72125;SDS011;59999;51.676;22.650;2023-03-26T14:24:52;3.60;;;1.25;;
72125;SDS011;59999;51.676;22.650;2023-03-26T14:41:24;6.65;;;2.00;;
72125;SDS011;59999;51.676;22.650;2023-03-26T14:44:12;6.28;;;2.33;;
72125;SDS011;59999;51.676;22.650;2023-03-26T14:55:15;4.30;;;0.50;;
72125;SDS011;59999;51.676;22.650;2023-03-26T14:58:07;1.73;;;0.50;;
72125;SDS011;59999;51.676;22.650;2023-03-26T15:06:51;4.13;;;1.05;;
72125;SDS011;59999;51.676;22.650;2023-03-26T15:23:48;3.97;;;1.25;;
72125;SDS011;59999;51.676;22.650;2023-03-26T15:35:00;3.05;;;0.70;;
72125;SDS011;59999;51.676;22.650;2023-03-26T15:40:34;2.70;;;0.85;;
72125;SDS011;59999;51.676;22.650;2023-03-26T15:43:14;4.22;;;0.70;;
72125;SDS011;59999;51.676;22.650;2023-03-26T15:48:45;3.28;;;0.80;;
72125;SDS011;59999;51.676;22.650;2023-03-26T15:59:39;5.33;;;1.50;;
72125;SDS011;59999;51.676;22.650;2023-03-26T16:18:29;6.72;;;2.42;;
72125;SDS011;59999;51.676;22.650;2023-03-26T16:21:03;6.55;;;2.65;;
72125;SDS011;59999;51.676;22.650;2023-03-26T16:26:25;6.35;;;2.35;;
72125;SDS011;59999;51.676;22.650;2023-03-26T16:34:56;6.47;;;2.00;;
72125;SDS011;59999;51.676;22.650;2023-03-26T16:50:56;22.20;;;9.48;;
72125;SDS011;59999;51.676;22.650;2023-03-26T16:53:36;20.10;;;9.50;;
72125;SDS011;59999;51.676;22.650;2023-03-26T16:56:36;16.90;;;8.75;;
72125;SDS011;59999;51.676;22.650;2023-03-26T17:02:25;10.52;;;5.50;;
72125;SDS011;59999;51.676;22.650;2023-03-26T17:05:05;13.07;;;6.60;;
72125;SDS011;59999;51.676;22.650;2023-03-26T17:07:51;9.57;;;4.97;;
72125;SDS011;59999;51.676;22.650;2023-03-26T17:16:32;10.82;;;6.20;;
72125;SDS011;59999;51.676;22.650;2023-03-26T17:41:06;11.57;;;4.72;;
72125;SDS011;59999;51.676;22.650;2023-03-26T17:46:19;9.43;;;4.28;;
72125;SDS011;59999;51.676;22.650;2023-03-26T17:48:53;8.73;;;4.10;;
72125;SDS011;59999;51.676;22.650;2023-03-26T17:54:05;10.57;;;4.18;;
72125;SDS011;59999;51.676;22.650;2023-03-26T17:56:32;9.07;;;4.50;;
72125;SDS011;59999;51.676;22.650;2023-03-26T17:59:02;10.35;;;4.78;;
72125;SDS011;59999;51.676;22.650;2023-03-26T18:01:39;10.18;;;4.18;;
72125;SDS011;59999;51.676;22.650;2023-03-26T18:04:13;11.93;;;4.90;;
72125;SDS011;59999;51.676;22.650;2023-03-26T18:12:26;17.00;;;6.88;;
72125;SDS011;59999;51.676;22.650;2023-03-26T18:17:22;21.33;;;8.93;;
72125;SDS011;59999;51.676;22.650;2023-03-26T18:20:01;30.25;;;11.25;;
72125;SDS011;59999;51.676;22.650;2023-03-26T18:22:31;30.95;;;11.82;;
72125;SDS011;59999;51.676;22.650;2023-03-26T18:24:59;31.75;;;13.15;;
72125;SDS011;59999;51.676;22.650;2023-03-26T18:27:34;23.55;;;10.05;;
72125;SDS011;59999;51.676;22.650;2023-03-26T18:33:00;47.28;;;17.63;;
72125;SDS011;59999;51.676;22.650;2023-03-26T18:35:40;58.92;;;18.63;;
72125;SDS011;59999;51.676;22.650;2023-03-26T18:38:20;48.05;;;17.88;;
72125;SDS011;59999;51.676;22.650;2023-03-26T18:40:48;55.83;;;20.20;;
72125;SDS011;59999;51.676;22.650;2023-03-26T18:43:19;81.53;;;33.03;;
72125;SDS011;59999;51.676;22.650;2023-03-26T18:45:50;79.00;;;31.30;;
72125;SDS011;59999;51.676;22.650;2023-03-26T18:48:21;31.40;;;13.25;;
72125;SDS011;59999;51.676;22.650;2023-03-26T18:50:52;31.15;;;13.32;;
72125;SDS011;59999;51.676;22.650;2023-03-26T18:53:33;31.20;;;13.70;;
72125;SDS011;59999;51.676;22.650;2023-03-26T18:56:16;125.90;;;53.38;;
72125;SDS011;59999;51.676;22.650;2023-03-26T18:58:52;98.68;;;42.70;;
72125;SDS011;59999;51.676;22.650;2023-03-26T19:01:22;92.25;;;39.38;;
72125;SDS011;59999;51.676;22.650;2023-03-26T19:03:50;81.22;;;31.58;;
72125;SDS011;59999;51.676;22.650;2023-03-26T19:06:17;61.05;;;24.90;;
72125;SDS011;59999;51.676;22.650;2023-03-26T19:08:45;38.25;;;15.93;;
72125;SDS011;59999;51.676;22.650;2023-03-26T19:11:12;37.38;;;14.95;;
72125;SDS011;59999;51.676;22.650;2023-03-26T19:13:41;50.40;;;19.38;;
72125;SDS011;59999;51.676;22.650;2023-03-26T19:16:19;51.67;;;22.05;;
72125;SDS011;59999;51.676;22.650;2023-03-26T19:18:53;52.50;;;22.10;;
72125;SDS011;59999;51.676;22.650;2023-03-26T19:21:19;53.38;;;20.30;;
72125;SDS011;59999;51.676;22.650;2023-03-26T19:23:47;52.63;;;19.70;;
72125;SDS011;59999;51.676;22.650;2023-03-26T19:26:16;45.17;;;19.05;;
72125;SDS011;59999;51.676;22.650;2023-03-26T19:28:50;45.97;;;19.13;;
72125;SDS011;59999;51.676;22.650;2023-03-26T19:31:34;33.45;;;16.15;;
72125;SDS011;59999;51.676;22.650;2023-03-26T19:39:49;15.48;;;6.55;;
72125;SDS011;59999;51.676;22.650;2023-03-26T19:42:17;13.73;;;6.68;;
72125;SDS011;59999;51.676;22.650;2023-03-26T19:44:45;15.98;;;6.70;;
72125;SDS011;59999;51.676;22.650;2023-03-26T19:49:47;15.65;;;7.30;;
72125;SDS011;59999;51.676;22.650;2023-03-26T19:52:15;15.50;;;7.03;;
72125;SDS011;59999;51.676;22.650;2023-03-26T19:54:52;16.10;;;6.70;;
72125;SDS011;59999;51.676;22.650;2023-03-26T19:57:19;16.00;;;5.85;;
72125;SDS011;59999;51.676;22.650;2023-03-26T19:59:49;15.73;;;6.10;;
72125;SDS011;59999;51.676;22.650;2023-03-26T20:02:16;16.42;;;6.03;;
72125;SDS011;59999;51.676;22.650;2023-03-26T20:04:43;16.42;;;6.53;;
72125;SDS011;59999;51.676;22.650;2023-03-26T20:07:13;14.30;;;6.10;;
72125;SDS011;59999;51.676;22.650;2023-03-26T20:09:42;15.60;;;6.05;;
72125;SDS011;59999;51.676;22.650;2023-03-26T20:12:10;15.63;;;6.30;;
72125;SDS011;59999;51.676;22.650;2023-03-26T20:14:37;15.45;;;6.10;;
72125;SDS011;59999;51.676;22.650;2023-03-26T20:17:05;13.50;;;5.55;;
72125;SDS011;59999;51.676;22.650;2023-03-26T20:19:36;12.98;;;5.35;;
72125;SDS011;59999;51.676;22.650;2023-03-26T20:22:03;13.00;;;5.53;;
72125;SDS011;59999;51.676;22.650;2023-03-26T20:24:32;13.93;;;5.05;;
72125;SDS011;59999;51.676;22.650;2023-03-26T20:26:58;13.13;;;5.03;;
72125;SDS011;59999;51.676;22.650;2023-03-26T20:29:24;12.18;;;4.97;;
72125;SDS011;59999;51.676;22.650;2023-03-26T20:31:52;12.90;;;5.10;;
72125;SDS011;59999;51.676;22.650;2023-03-26T20:34:20;11.88;;;4.95;;
72125;SDS011;59999;51.676;22.650;2023-03-26T20:36:47;12.05;;;5.28;;
72125;SDS011;59999;51.676;22.650;2023-03-26T20:39:20;11.90;;;5.20;;
72125;SDS011;59999;51.676;22.650;2023-03-26T20:41:49;15.00;;;5.40;;
72125;SDS011;59999;51.676;22.650;2023-03-26T20:44:18;13.13;;;4.93;;
72125;SDS011;59999;51.676;22.650;2023-03-26T20:46:45;12.55;;;5.32;;
72125;SDS011;59999;51.676;22.650;2023-03-26T20:49:16;12.90;;;5.20;;
72125;SDS011;59999;51.676;22.650;2023-03-26T20:51:42;14.67;;;5.33;;
72125;SDS011;59999;51.676;22.650;2023-03-26T20:56:45;12.32;;;5.10;;
72125;SDS011;59999;51.676;22.650;2023-03-26T20:59:15;11.07;;;4.72;;
72125;SDS011;59999;51.676;22.650;2023-03-26T21:01:46;12.75;;;5.10;;
72125;SDS011;59999;51.676;22.650;2023-03-26T21:04:15;12.37;;;4.90;;
72125;SDS011;59999;51.676;22.650;2023-03-26T21:06:41;13.15;;;5.28;;
72125;SDS011;59999;51.676;22.650;2023-03-26T21:09:10;11.98;;;4.95;;
72125;SDS011;59999;51.676;22.650;2023-03-26T21:14:10;12.93;;;4.55;;
72125;SDS011;59999;51.676;22.650;2023-03-26T21:16:49;12.47;;;4.87;;
72125;SDS011;59999;51.676;22.650;2023-03-26T21:19:16;12.15;;;5.03;;
72125;SDS011;59999;51.676;22.650;2023-03-26T21:27:04;10.75;;;3.97;;
72125;SDS011;59999;51.676;22.650;2023-03-26T21:29:44;15.00;;;5.17;;
72125;SDS011;59999;51.676;22.650;2023-03-26T21:32:11;11.65;;;4.93;;
72125;SDS011;59999;51.676;22.650;2023-03-26T21:34:38;11.43;;;4.45;;
72125;SDS011;59999;51.676;22.650;2023-03-26T21:37:04;12.30;;;4.97;;
72125;SDS011;59999;51.676;22.650;2023-03-26T21:39:31;13.40;;;4.97;;